sensor_id;sensor_type;location;lat;lon;timestamp;pressure;altitude;pressure_sealevel;temperature;humidity
22283;BME280;11310;51.528;21.204;2023-02-04T00:00:14;99069.72;;;0.67;100.00
22283;BME280;11310;51.528;21.204;2023-02-04T00:02:44;99077.44;;;0.67;100.00
22283;BME280;11310;51.528;21.204;2023-02-04T00:05:13;99076.59;;;0.66;100.00
22283;BME280;11310;51.528;21.204;2023-02-04T00:07:43;99080.06;;;0.65;100.00
22283;BME280;11310;51.528;21.204;2023-02-04T00:10:13;99085.22;;;0.65;100.00
22283;BME280;11310;51.528;21.204;2023-02-04T00:12:43;99087.84;;;0.62;100.00
22283;BME280;11310;51.528;21.204;2023-02-04T00:15:11;99083.59;;;0.61;100.00
22283;BME280;11310;51.528;21.204;2023-02-04T00:17:40;99092.97;;;0.64;100.00
22283;BME280;11310;51.528;21.204;2023-02-04T00:20:10;99094.69;;;0.63;100.00
22283;BME280;11310;51.528;21.204;2023-02-04T00:22:39;99098.16;;;0.64;100.00
22283;BME280;11310;51.528;21.204;2023-02-04T00:25:07;99109.31;;;0.64;100.00
22283;BME280;11310;51.528;21.204;2023-02-04T00:27:37;99109.34;;;0.63;100.00
22283;BME280;11310;51.528;21.204;2023-02-04T00:30:07;99124.00;;;0.61;100.00
22283;BME280;11310;51.528;21.204;2023-02-04T00:32:37;99126.56;;;0.61;100.00
22283;BME280;11310;51.528;21.204;2023-02-04T00:35:06;99132.59;;;0.61;100.00
22283;BME280;11310;51.528;21.204;2023-02-04T00:37:35;99144.72;;;0.58;100.00
22283;BME280;11310;51.528;21.204;2023-02-04T00:40:05;99140.41;;;0.57;100.00
22283;BME280;11310;51.528;21.204;2023-02-04T00:42:34;99146.50;;;0.52;100.00
22283;BME280;11310;51.528;21.204;2023-02-04T00:45:04;99148.31;;;0.49;100.00
22283;BME280;11310;51.528;21.204;2023-02-04T00:47:33;99145.75;;;0.49;100.00
22283;BME280;11310;51.528;21.204;2023-02-04T00:50:01;99149.19;;;0.48;100.00
22283;BME280;11310;51.528;21.204;2023-02-04T00:52:30;99148.34;;;0.47;100.00
22283;BME280;11310;51.528;21.204;2023-02-04T00:54:59;99150.13;;;0.44;100.00
22283;BME280;11310;51.528;21.204;2023-02-04T00:57:27;99158.75;;;0.43;100.00
22283;BME280;11310;51.528;21.204;2023-02-04T00:59:55;99168.22;;;0.43;100.00
22283;BME280;11310;51.528;21.204;2023-02-04T01:02:27;99175.97;;;0.43;100.00
22283;BME280;11310;51.528;21.204;2023-02-04T01:04:57;99187.22;;;0.38;100.00
22283;BME280;11310;51.528;21.204;2023-02-04T01:07:26;99199.34;;;0.33;100.00
22283;BME280;11310;51.528;21.204;2023-02-04T01:09:55;99210.59;;;0.29;100.00
22283;BME280;11310;51.528;21.204;2023-02-04T01:12:24;99214.97;;;0.24;100.00
22283;BME280;11310;51.528;21.204;2023-02-04T01:14:55;99223.63;;;0.22;100.00
22283;BME280;11310;51.528;21.204;2023-02-04T01:17:24;99227.94;;;0.22;100.00
22283;BME280;11310;51.528;21.204;2023-02-04T01:19:54;99244.28;;;0.20;100.00
22283;BME280;11310;51.528;21.204;2023-02-04T01:22:22;99246.84;;;0.20;100.00
22283;BME280;11310;51.528;21.204;2023-02-04T01:24:52;99243.47;;;0.18;100.00
22283;BME280;11310;51.528;21.204;2023-02-04T01:27:44;99254.72;;;0.13;100.00
22283;BME280;11310;51.528;21.204;2023-02-04T01:30:15;99266.84;;;0.08;100.00
22283;BME280;11310;51.528;21.204;2023-02-04T01:32:43;99267.81;;;0.03;100.00
22283;BME280;11310;51.528;21.204;2023-02-04T01:35:14;99278.16;;;-0.01;100.00
22283;BME280;11310;51.528;21.204;2023-02-04T01:37:43;99278.19;;;-0.02;100.00
22283;BME280;11310;51.528;21.204;2023-02-04T01:40:14;99287.63;;;-0.03;100.00
22283;BME280;11310;51.528;21.204;2023-02-04T01:42:42;99291.97;;;-0.05;100.00
22283;BME280;11310;51.528;21.204;2023-02-04T01:45:12;99301.41;;;-0.05;100.00
22283;BME280;11310;51.528;21.204;2023-02-04T01:47:41;99316.09;;;-0.09;100.00
22283;BME280;11310;51.528;21.204;2023-02-04T01:50:10;99332.44;;;-0.11;100.00
22283;BME280;11310;51.528;21.204;2023-02-04T01:52:44;99325.63;;;-0.15;100.00
22283;BME280;11310;51.528;21.204;2023-02-04T01:55:15;99340.22;;;-0.14;100.00
22283;BME280;11310;51.528;21.204;2023-02-04T01:57:45;99340.25;;;-0.16;100.00
22283;BME280;11310;51.528;21.204;2023-02-04T02:00:18;99360.00;;;-0.16;100.00
22283;BME280;11310;51.528;21.204;2023-02-04T02:02:50;99355.78;;;-0.22;100.00
22283;BME280;11310;51.528;21.204;2023-02-04T02:05:21;99363.50;;;-0.22;100.00
22283;BME280;11310;51.528;21.204;2023-02-04T02:07:54;99379.84;;;-0.23;100.00
22283;BME280;11310;51.528;21.204;2023-02-04T02:10:25;99380.69;;;-0.21;100.00
22283;BME280;11310;51.528;21.204;2023-02-04T02:12:54;99390.13;;;-0.20;100.00
22283;BME280;11310;51.528;21.204;2023-02-04T02:15:24;99406.47;;;-0.22;100.00
22283;BME280;11310;51.528;21.204;2023-02-04T02:17:54;99398.75;;;-0.21;100.00
22283;BME280;11310;51.528;21.204;2023-02-04T02:20:24;99415.97;;;-0.26;100.00
22283;BME280;11310;51.528;21.204;2023-02-04T02:23:03;99430.63;;;-0.31;100.00
22283;BME280;11310;51.528;21.204;2023-02-04T02:25:35;99441.81;;;-0.35;100.00
22283;BME280;11310;51.528;21.204;2023-02-04T02:28:09;99445.25;;;-0.33;100.00
22283;BME280;11310;51.528;21.204;2023-02-04T02:30:39;99459.03;;;-0.34;100.00
22283;BME280;11310;51.528;21.204;2023-02-04T02:33:10;99462.44;;;-0.33;100.00
22283;BME280;11310;51.528;21.204;2023-02-04T02:35:43;99471.03;;;-0.36;100.00
22283;BME280;11310;51.528;21.204;2023-02-04T02:38:16;99471.03;;;-0.36;100.00
22283;BME280;11310;51.528;21.204;2023-02-04T02:40:47;99488.19;;;-0.35;100.00
22283;BME280;11310;51.528;21.204;2023-02-04T02:43:20;99498.50;;;-0.35;100.00
22283;BME280;11310;51.528;21.204;2023-02-04T02:45:50;99498.50;;;-0.33;100.00
22283;BME280;11310;51.528;21.204;2023-02-04T02:48:19;99494.22;;;-0.36;100.00
22283;BME280;11310;51.528;21.204;2023-02-04T02:50:48;99514.00;;;-0.36;100.00
22283;BME280;11310;51.528;21.204;2023-02-04T02:53:18;99530.31;;;-0.36;100.00
22283;BME280;11310;51.528;21.204;2023-02-04T02:55:50;99541.47;;;-0.37;100.00
22283;BME280;11310;51.528;21.204;2023-02-04T02:58:25;99562.09;;;-0.37;100.00
22283;BME280;11310;51.528;21.204;2023-02-04T03:00:56;99578.41;;;-0.36;100.00
22283;BME280;11310;51.528;21.204;2023-02-04T03:03:28;99587.84;;;-0.37;100.00
22283;BME280;11310;51.528;21.204;2023-02-04T03:06:00;99604.19;;;-0.38;100.00
22283;BME280;11310;51.528;21.204;2023-02-04T03:08:31;99605.91;;;-0.38;100.00
22283;BME280;11310;51.528;21.204;2023-02-04T03:11:01;99615.38;;;-0.39;100.00
22283;BME280;11310;51.528;21.204;2023-02-04T03:13:30;99623.09;;;-0.40;100.00
22283;BME280;11310;51.528;21.204;2023-02-04T03:16:00;99642.03;;;-0.44;100.00
22283;BME280;11310;51.528;21.204;2023-02-04T03:18:29;99653.16;;;-0.44;100.00
22283;BME280;11310;51.528;21.204;2023-02-04T03:20:57;99661.75;;;-0.42;100.00
22283;BME280;11310;51.528;21.204;2023-02-04T03:23:26;99675.50;;;-0.43;100.00
22283;BME280;11310;51.528;21.204;2023-02-04T03:25:55;99681.50;;;-0.42;100.00
22283;BME280;11310;51.528;21.204;2023-02-04T03:28:26;99697.81;;;-0.45;100.00
22283;BME280;11310;51.528;21.204;2023-02-04T03:30:54;99701.25;;;-0.43;100.00
22283;BME280;11310;51.528;21.204;2023-02-04T03:33:23;99705.56;;;-0.46;100.00
22283;BME280;11310;51.528;21.204;2023-02-04T03:35:53;99715.03;;;-0.47;100.00
22283;BME280;11310;51.528;21.204;2023-02-04T03:38:21;99721.06;;;-0.49;100.00
22283;BME280;11310;51.528;21.204;2023-02-04T03:40:49;99732.25;;;-0.52;100.00
22283;BME280;11310;51.528;21.204;2023-02-04T03:43:18;99744.25;;;-0.51;100.00
22283;BME280;11310;51.528;21.204;2023-02-04T03:45:48;99750.22;;;-0.49;100.00
22283;BME280;11310;51.528;21.204;2023-02-04T03:48:16;99782.00;;;-0.50;100.00
22283;BME280;11310;51.528;21.204;2023-02-04T03:50:45;99785.47;;;-0.51;100.00
22283;BME280;11310;51.528;21.204;2023-02-04T03:53:13;99801.78;;;-0.53;100.00
22283;BME280;11310;51.528;21.204;2023-02-04T03:55:42;99811.22;;;-0.51;100.00
22283;BME280;11310;51.528;21.204;2023-02-04T03:58:10;99829.25;;;-0.51;100.00
22283;BME280;11310;51.528;21.204;2023-02-04T04:00:39;99831.81;;;-0.54;100.00
22283;BME280;11310;51.528;21.204;2023-02-04T04:03:09;99852.44;;;-0.54;100.00
22283;BME280;11310;51.528;21.204;2023-02-04T04:05:37;99852.44;;;-0.54;100.00
22283;BME280;11310;51.528;21.204;2023-02-04T04:08:06;99856.75;;;-0.54;100.00
22283;BME280;11310;51.528;21.204;2023-02-04T04:10:35;99865.31;;;-0.54;100.00
22283;BME280;11310;51.528;21.204;2023-02-04T04:13:03;99872.19;;;-0.56;100.00
22283;BME280;11310;51.528;21.204;2023-02-04T04:15:32;99883.38;;;-0.57;100.00
22283;BME280;11310;51.528;21.204;2023-02-04T04:18:01;99897.13;;;-0.64;100.00
22283;BME280;11310;51.528;21.204;2023-02-04T04:20:32;99914.31;;;-0.66;100.00
22283;BME280;11310;51.528;21.204;2023-02-04T04:23:00;99920.31;;;-0.73;100.00
22283;BME280;11310;51.528;21.204;2023-02-04T04:25:29;99920.34;;;-0.77;100.00
22283;BME280;11310;51.528;21.204;2023-02-04T04:27:57;99922.06;;;-0.81;100.00
22283;BME280;11310;51.528;21.204;2023-02-04T04:30:26;99936.66;;;-0.83;100.00
22283;BME280;11310;51.528;21.204;2023-02-04T04:32:54;99950.41;;;-0.84;100.00
22283;BME280;11310;51.528;21.204;2023-02-04T04:35:23;99973.56;;;-0.84;100.00
22283;BME280;11310;51.528;21.204;2023-02-04T04:37:53;99978.72;;;-0.82;100.00
22283;BME280;11310;51.528;21.204;2023-02-04T04:40:21;99985.59;;;-0.80;100.00
22283;BME280;11310;51.528;21.204;2023-02-04T04:42:49;100007.03;;;-0.79;100.00
22283;BME280;11310;51.528;21.204;2023-02-04T04:45:18;100013.91;;;-0.80;100.00
22283;BME280;11310;51.528;21.204;2023-02-04T04:47:47;100010.47;;;-0.82;100.00
22283;BME280;11310;51.528;21.204;2023-02-04T04:50:15;100025.91;;;-0.82;100.00
22283;BME280;11310;51.528;21.204;2023-02-04T04:52:44;100037.06;;;-0.84;100.00
22283;BME280;11310;51.528;21.204;2023-02-04T04:55:13;100046.50;;;-0.82;100.00
22283;BME280;11310;51.528;21.204;2023-02-04T04:57:43;100060.25;;;-0.80;100.00
22283;BME280;11310;51.528;21.204;2023-02-04T05:00:15;100067.13;;;-0.79;100.00
22283;BME280;11310;51.528;21.204;2023-02-04T05:02:44;100079.97;;;-0.82;100.00
22283;BME280;11310;51.528;21.204;2023-02-04T05:05:13;100079.13;;;-0.84;100.00
22283;BME280;11310;51.528;21.204;2023-02-04T05:07:42;100078.28;;;-0.83;100.00
22283;BME280;11310;51.528;21.204;2023-02-04T05:10:10;100096.28;;;-0.87;100.00
22283;BME280;11310;51.528;21.204;2023-02-04T05:12:41;100110.03;;;-0.93;100.00
22283;BME280;11310;51.528;21.204;2023-02-04T05:15:10;100119.47;;;-0.98;100.00
22283;BME280;11310;51.528;21.204;2023-02-04T05:17:39;100132.31;;;-1.01;100.00
22283;BME280;11310;51.528;21.204;2023-02-04T05:20:08;100140.91;;;-1.02;100.00
22283;BME280;11310;51.528;21.204;2023-02-04T05:22:36;100147.75;;;-1.05;100.00
22283;BME280;11310;51.528;21.204;2023-02-04T05:25:05;100152.03;;;-1.07;100.00
22283;BME280;11310;51.528;21.204;2023-02-04T05:27:34;100177.75;;;-1.10;100.00
22283;BME280;11310;51.528;21.204;2023-02-04T05:30:05;100181.19;;;-1.14;100.00
22283;BME280;11310;51.528;21.204;2023-02-04T05:32:33;100194.88;;;-1.20;100.00
22283;BME280;11310;51.528;21.204;2023-02-04T05:35:03;100219.72;;;-1.22;100.00
22283;BME280;11310;51.528;21.204;2023-02-04T05:37:31;100227.47;;;-1.23;100.00
22283;BME280;11310;51.528;21.204;2023-02-04T05:40:00;100226.59;;;-1.25;100.00
22283;BME280;11310;51.528;21.204;2023-02-04T05:42:29;100239.44;;;-1.30;100.00
22283;BME280;11310;51.528;21.204;2023-02-04T05:44:57;100242.84;;;-1.35;100.00
22283;BME280;11310;51.528;21.204;2023-02-04T05:47:27;100254.81;;;-1.40;100.00
22283;BME280;11310;51.528;21.204;2023-02-04T05:49:55;100269.38;;;-1.41;100.00
22283;BME280;11310;51.528;21.204;2023-02-04T05:52:24;100271.94;;;-1.45;100.00
22283;BME280;11310;51.528;21.204;2023-02-04T05:54:52;100283.94;;;-1.50;100.00
22283;BME280;11310;51.528;21.204;2023-02-04T05:57:21;100300.19;;;-1.53;100.00
22283;BME280;11310;51.528;21.204;2023-02-04T05:59:50;100303.59;;;-1.57;100.00
22283;BME280;11310;51.528;21.204;2023-02-04T06:02:18;100319.84;;;-1.61;100.00
22283;BME280;11310;51.528;21.204;2023-02-04T06:04:48;100329.28;;;-1.60;100.00
22283;BME280;11310;51.528;21.204;2023-02-04T06:07:16;100338.75;;;-1.54;100.00
22283;BME280;11310;51.528;21.204;2023-02-04T06:09:45;100343.97;;;-1.47;100.00
22283;BME280;11310;51.528;21.204;2023-02-04T06:12:13;100346.56;;;-1.41;100.00
22283;BME280;11310;51.528;21.204;2023-02-04T06:14:42;100354.31;;;-1.33;100.00
22283;BME280;11310;51.528;21.204;2023-02-04T06:17:10;100363.81;;;-1.28;100.00
22283;BME280;11310;51.528;21.204;2023-02-04T06:19:38;100379.28;;;-1.23;100.00
22283;BME280;11310;51.528;21.204;2023-02-04T06:22:09;100374.13;;;-1.22;100.00
22283;BME280;11310;51.528;21.204;2023-02-04T06:24:37;100389.63;;;-1.16;100.00
22283;BME280;11310;51.528;21.204;2023-02-04T06:27:06;100405.94;;;-1.12;100.00
22283;BME280;11310;51.528;21.204;2023-02-04T06:29:34;100406.78;;;-1.10;100.00
22283;BME280;11310;51.528;21.204;2023-02-04T06:32:03;100421.41;;;-1.09;100.00
22283;BME280;11310;51.528;21.204;2023-02-04T06:34:32;100432.59;;;-1.06;100.00
22283;BME280;11310;51.528;21.204;2023-02-04T06:37:01;100442.06;;;-1.02;100.00
22283;BME280;11310;51.528;21.204;2023-02-04T06:39:30;100442.91;;;-1.00;100.00
22283;BME280;11310;51.528;21.204;2023-02-04T06:41:59;100455.81;;;-0.95;100.00
22283;BME280;11310;51.528;21.204;2023-02-04T06:44:27;100464.41;;;-0.93;100.00
22283;BME280;11310;51.528;21.204;2023-02-04T06:46:56;100468.72;;;-0.94;100.00
22283;BME280;11310;51.528;21.204;2023-02-04T06:49:24;100480.72;;;-0.90;100.00
22283;BME280;11310;51.528;21.204;2023-02-04T06:51:52;100485.06;;;-0.89;100.00
22283;BME280;11310;51.528;21.204;2023-02-04T06:54:21;100492.78;;;-0.86;100.00
22283;BME280;11310;51.528;21.204;2023-02-04T06:56:52;100505.69;;;-0.83;100.00
22283;BME280;11310;51.528;21.204;2023-02-04T06:59:20;100511.72;;;-0.78;100.00
22283;BME280;11310;51.528;21.204;2023-02-04T07:01:50;100516.06;;;-0.74;100.00
22283;BME280;11310;51.528;21.204;2023-02-04T07:04:18;100517.81;;;-0.70;100.00
22283;BME280;11310;51.528;21.204;2023-02-04T07:06:47;100520.41;;;-0.64;100.00
22283;BME280;11310;51.528;21.204;2023-02-04T07:09:15;100525.59;;;-0.61;100.00
22283;BME280;11310;51.528;21.204;2023-02-04T07:11:43;100542.78;;;-0.57;100.00
22283;BME280;11310;51.528;21.204;2023-02-04T07:14:13;100550.53;;;-0.52;100.00
22283;BME280;11310;51.528;21.204;2023-02-04T07:16:42;100553.13;;;-0.51;100.00
22283;BME280;11310;51.528;21.204;2023-02-04T07:19:11;100552.28;;;-0.48;100.00
22283;BME280;11310;51.528;21.204;2023-02-04T07:21:39;100568.66;;;-0.42;100.00
22283;BME280;11310;51.528;21.204;2023-02-04T07:24:07;100578.97;;;-0.36;100.00
22283;BME280;11310;51.528;21.204;2023-02-04T07:26:36;100592.75;;;-0.35;100.00
22283;BME280;11310;51.528;21.204;2023-02-04T07:29:04;100587.56;;;-0.37;100.00
22283;BME280;11310;51.528;21.204;2023-02-04T07:31:41;100594.44;;;-0.36;100.00
22283;BME280;11310;51.528;21.204;2023-02-04T07:34:11;100598.75;;;-0.36;100.00
22283;BME280;11310;51.528;21.204;2023-02-04T07:36:40;100615.94;;;-0.35;100.00
22283;BME280;11310;51.528;21.204;2023-02-04T07:39:09;100620.25;;;-0.33;100.00
22283;BME280;11310;51.528;21.204;2023-02-04T07:41:38;100636.59;;;-0.29;100.00
22283;BME280;11310;51.528;21.204;2023-02-04T07:44:11;100631.47;;;-0.23;100.00
22283;BME280;11310;51.528;21.204;2023-02-04T07:46:40;100650.44;;;-0.18;100.00
22283;BME280;11310;51.528;21.204;2023-02-04T07:49:09;100648.69;;;-0.19;100.00
22283;BME280;11310;51.528;21.204;2023-02-04T07:51:37;100653.00;;;-0.17;100.00
22283;BME280;11310;51.528;21.204;2023-02-04T07:54:06;100647.03;;;-0.10;100.00
22283;BME280;11310;51.528;21.204;2023-02-04T07:56:34;100652.22;;;-0.04;100.00
22283;BME280;11310;51.528;21.204;2023-02-04T07:59:03;100651.41;;;0.00;100.00
22283;BME280;11310;51.528;21.204;2023-02-04T08:01:31;100653.16;;;0.04;100.00
22283;BME280;11310;51.528;21.204;2023-02-04T08:04:01;100668.66;;;0.08;100.00
22283;BME280;11310;51.528;21.204;2023-02-04T08:06:29;100670.34;;;0.05;100.00
22283;BME280;11310;51.528;21.204;2023-02-04T08:08:58;100673.78;;;0.04;100.00
22283;BME280;11310;51.528;21.204;2023-02-04T08:11:27;100688.38;;;0.03;100.00
22283;BME280;11310;51.528;21.204;2023-02-04T08:13:55;100689.22;;;0.01;100.00
22283;BME280;11310;51.528;21.204;2023-02-04T08:16:24;100698.66;;;-0.01;100.00
22283;BME280;11310;51.528;21.204;2023-02-04T08:18:52;100700.34;;;-0.03;100.00
22283;BME280;11310;51.528;21.204;2023-02-04T08:21:22;100706.31;;;-0.13;100.00
22283;BME280;11310;51.528;21.204;2023-02-04T08:23:51;100700.22;;;-0.24;100.00
22283;BME280;11310;51.528;21.204;2023-02-04T08:26:19;100720.81;;;-0.27;100.00
22283;BME280;11310;51.528;21.204;2023-02-04T08:28:48;100726.00;;;-0.19;100.00
22283;BME280;11310;51.528;21.204;2023-02-04T08:31:17;100737.25;;;-0.13;100.00
22283;BME280;11310;51.528;21.204;2023-02-04T08:33:45;100730.41;;;-0.08;100.00
22283;BME280;11310;51.528;21.204;2023-02-04T08:36:14;100742.44;;;-0.10;100.00
22283;BME280;11310;51.528;21.204;2023-02-04T08:38:43;100754.47;;;-0.09;100.00
22283;BME280;11310;51.528;21.204;2023-02-04T08:41:13;100738.22;;;0.01;100.00
22283;BME280;11310;51.528;21.204;2023-02-04T08:43:41;100753.81;;;0.18;100.00
22283;BME280;11310;51.528;21.204;2023-02-04T08:46:09;100753.06;;;0.32;100.00
22283;BME280;11310;51.528;21.204;2023-02-04T08:48:38;100757.50;;;0.59;100.00
22283;BME280;11310;51.528;21.204;2023-02-04T08:51:07;100765.25;;;0.55;100.00
22283;BME280;11310;51.528;21.204;2023-02-04T08:53:35;100767.75;;;0.40;100.00
22283;BME280;11310;51.528;21.204;2023-02-04T08:56:06;100770.13;;;0.15;100.00
22283;BME280;11310;51.528;21.204;2023-02-04T08:58:36;100769.97;;;-0.03;100.00
22283;BME280;11310;51.528;21.204;2023-02-04T09:01:05;100763.00;;;-0.16;100.00
22283;BME280;11310;51.528;21.204;2023-02-04T09:03:35;100768.00;;;-0.31;100.00
22283;BME280;11310;51.528;21.204;2023-02-04T09:06:04;100785.09;;;-0.42;100.00
22283;BME280;11310;51.528;21.204;2023-02-04T09:08:34;100792.84;;;-0.42;100.00
22283;BME280;11310;51.528;21.204;2023-02-04T09:11:04;100792.84;;;-0.37;100.00
22283;BME280;11310;51.528;21.204;2023-02-04T09:13:34;100800.56;;;-0.42;100.00
22283;BME280;11310;51.528;21.204;2023-02-04T09:16:02;100809.16;;;-0.40;100.00
22283;BME280;11310;51.528;21.204;2023-02-04T09:18:31;100815.22;;;-0.36;100.00
22283;BME280;11310;51.528;21.204;2023-02-04T09:20:59;100825.56;;;-0.33;100.00
22283;BME280;11310;51.528;21.204;2023-02-04T09:23:28;100842.00;;;-0.24;100.00
22283;BME280;11310;51.528;21.204;2023-02-04T09:25:56;100845.41;;;-0.25;100.00
22283;BME280;11310;51.528;21.204;2023-02-04T09:28:25;100844.59;;;-0.21;100.00
22283;BME280;11310;51.528;21.204;2023-02-04T09:30:55;100853.09;;;-0.29;100.00
22283;BME280;11310;51.528;21.204;2023-02-04T09:33:23;100856.44;;;-0.38;100.00
22283;BME280;11310;51.528;21.204;2023-02-04T09:35:52;100853.88;;;-0.38;100.00
22283;BME280;11310;51.528;21.204;2023-02-04T09:38:21;100856.38;;;-0.42;100.00
22283;BME280;11310;51.528;21.204;2023-02-04T09:40:52;100857.25;;;-0.42;100.00
22283;BME280;11310;51.528;21.204;2023-02-04T09:43:24;100863.25;;;-0.43;100.00
22283;BME280;11310;51.528;21.204;2023-02-04T09:45:55;100866.78;;;-0.36;100.00
22283;BME280;11310;51.528;21.204;2023-02-04T09:48:24;100872.97;;;-0.18;100.00
22283;BME280;11310;51.528;21.204;2023-02-04T09:51:02;100880.94;;;0.03;100.00
22283;BME280;11310;51.528;21.204;2023-02-04T09:53:32;100899.00;;;0.06;100.00
22283;BME280;11310;51.528;21.204;2023-02-04T09:56:02;100889.59;;;0.08;100.00
22283;BME280;11310;51.528;21.204;2023-02-04T09:58:33;100895.59;;;0.10;100.00
22283;BME280;11310;51.528;21.204;2023-02-04T10:01:11;100898.19;;;0.10;100.00
22283;BME280;11310;51.528;21.204;2023-02-04T10:03:43;100905.06;;;0.08;100.00
22283;BME280;11310;51.528;21.204;2023-02-04T10:06:14;100901.66;;;0.13;100.00
22283;BME280;11310;51.528;21.204;2023-02-04T10:08:44;100909.53;;;0.28;100.00
22283;BME280;11310;51.528;21.204;2023-02-04T10:11:14;100902.63;;;0.23;100.00
22283;BME280;11310;51.528;21.204;2023-02-04T10:13:45;100920.06;;;0.52;100.00
22283;BME280;11310;51.528;21.204;2023-02-04T10:16:20;100926.13;;;0.54;100.00
22283;BME280;11310;51.528;21.204;2023-02-04T10:18:50;100932.22;;;0.65;100.00
22283;BME280;11310;51.528;21.204;2023-02-04T10:21:21;100928.81;;;0.69;100.00
22283;BME280;11310;51.528;21.204;2023-02-04T10:23:54;100939.09;;;0.63;100.00
22283;BME280;11310;51.528;21.204;2023-02-04T10:26:26;100941.69;;;0.63;100.00
22283;BME280;11310;51.528;21.204;2023-02-04T10:28:59;100939.94;;;0.62;100.00
22283;BME280;11310;51.528;21.204;2023-02-04T10:31:31;100934.75;;;0.57;100.00
22283;BME280;11310;51.528;21.204;2023-02-04T10:34:10;100943.28;;;0.50;100.00
22283;BME280;11310;51.528;21.204;2023-02-04T10:36:42;100939.78;;;0.42;100.00
22283;BME280;11310;51.528;21.204;2023-02-04T10:39:14;100935.28;;;0.24;100.00
22283;BME280;11310;51.528;21.204;2023-02-04T10:41:47;100935.16;;;0.09;100.00
22283;BME280;11310;51.528;21.204;2023-02-04T10:44:18;100932.53;;;0.05;100.00
22283;BME280;11310;51.528;21.204;2023-02-04T10:46:48;100927.28;;;-0.01;100.00
22283;BME280;11310;51.528;21.204;2023-02-04T10:49:22;100922.13;;;-0.04;100.00
22283;BME280;11310;51.528;21.204;2023-02-04T10:51:51;100932.38;;;-0.09;100.00
22283;BME280;11310;51.528;21.204;2023-02-04T10:54:22;100929.72;;;-0.15;100.00
22283;BME280;11310;51.528;21.204;2023-02-04T10:56:59;100930.59;;;-0.14;100.00
22283;BME280;11310;51.528;21.204;2023-02-04T10:59:28;100925.44;;;-0.14;100.00
22283;BME280;11310;51.528;21.204;2023-02-04T11:01:59;100927.38;;;0.05;100.00
22283;BME280;11310;51.528;21.204;2023-02-04T11:04:30;100933.47;;;0.13;100.00
22283;BME280;11310;51.528;21.204;2023-02-04T11:07:00;100936.13;;;0.19;100.00
22283;BME280;11310;51.528;21.204;2023-02-04T11:09:29;100931.81;;;0.19;100.00
22283;BME280;11310;51.528;21.204;2023-02-04T11:11:58;100929.19;;;0.13;100.00
22283;BME280;11310;51.528;21.204;2023-02-04T11:14:28;100934.34;;;0.15;100.00
22283;BME280;11310;51.528;21.204;2023-02-04T11:17:00;100938.78;;;0.29;100.00
22283;BME280;11310;51.528;21.204;2023-02-04T11:19:32;100938.88;;;0.38;100.00
22283;BME280;11310;51.528;21.204;2023-02-04T11:22:04;100943.22;;;0.44;95.79
22283;BME280;11310;51.528;21.204;2023-02-04T11:24:33;100938.22;;;0.62;100.00
22283;BME280;11310;51.528;21.204;2023-02-04T11:27:06;100938.41;;;0.82;100.00
22283;BME280;11310;51.528;21.204;2023-02-04T11:29:36;100942.97;;;1.19;100.00
22283;BME280;11310;51.528;21.204;2023-02-04T11:32:26;100940.44;;;1.29;94.93
22283;BME280;11310;51.528;21.204;2023-02-04T11:35:21;100951.69;;;1.40;96.41
22283;BME280;11310;51.528;21.204;2023-02-04T11:37:50;100960.31;;;1.44;95.94
22283;BME280;11310;51.528;21.204;2023-02-04T11:40:29;100961.16;;;1.37;91.39
22283;BME280;11310;51.528;21.204;2023-02-04T11:43:00;100961.09;;;1.28;94.83
22283;BME280;11310;51.528;21.204;2023-02-04T11:45:32;100975.69;;;1.21;94.34
22283;BME280;11310;51.528;21.204;2023-02-04T11:48:11;100974.13;;;1.40;95.04
22283;BME280;11310;51.528;21.204;2023-02-04T11:50:40;100973.19;;;1.32;93.37
22283;BME280;11310;51.528;21.204;2023-02-04T11:53:10;100964.59;;;1.34;94.94
22283;BME280;11310;51.528;21.204;2023-02-04T11:55:45;100977.53;;;1.40;92.43
22283;BME280;11310;51.528;21.204;2023-02-04T11:58:17;100980.00;;;1.21;94.70
22283;BME280;11310;51.528;21.204;2023-02-04T12:00:52;100976.47;;;1.10;95.85
22283;BME280;11310;51.528;21.204;2023-02-04T12:03:24;100978.09;;;0.94;98.08
22283;BME280;11310;51.528;21.204;2023-02-04T12:05:53;100983.06;;;0.75;97.40
22283;BME280;11310;51.528;21.204;2023-02-04T12:08:30;100990.59;;;0.49;96.05
22283;BME280;11310;51.528;21.204;2023-02-04T12:11:02;100987.75;;;0.25;97.65
22283;BME280;11310;51.528;21.204;2023-02-04T12:13:33;100994.44;;;0.05;100.00
22283;BME280;11310;51.528;21.204;2023-02-04T12:16:04;100996.94;;;0.00;100.00
22283;BME280;11310;51.528;21.204;2023-02-04T12:18:34;101006.38;;;-0.02;100.00
22283;BME280;11310;51.528;21.204;2023-02-04T12:21:05;101007.09;;;-0.15;100.00
22283;BME280;11310;51.528;21.204;2023-02-04T12:23:33;101003.53;;;-0.23;100.00
22283;BME280;11310;51.528;21.204;2023-02-04T12:26:02;101001.63;;;-0.39;100.00
22283;BME280;11310;51.528;21.204;2023-02-04T12:28:30;101010.16;;;-0.43;100.00
22283;BME280;11310;51.528;21.204;2023-02-04T12:30:59;101005.00;;;-0.43;100.00
22283;BME280;11310;51.528;21.204;2023-02-04T12:33:28;101004.25;;;-0.34;100.00
22283;BME280;11310;51.528;21.204;2023-02-04T12:35:58;101008.63;;;-0.26;100.00
22283;BME280;11310;51.528;21.204;2023-02-04T12:38:26;101006.91;;;-0.27;100.00
22283;BME280;11310;51.528;21.204;2023-02-04T12:40:55;101012.88;;;-0.31;100.00
22283;BME280;11310;51.528;21.204;2023-02-04T12:43:24;101006.03;;;-0.30;100.00
22283;BME280;11310;51.528;21.204;2023-02-04T12:45:54;101007.72;;;-0.31;100.00
22283;BME280;11310;51.528;21.204;2023-02-04T12:48:22;101004.31;;;-0.30;100.00
22283;BME280;11310;51.528;21.204;2023-02-04T12:50:52;101009.47;;;-0.30;100.00